sensor_id;sensor_type;location;lat;lon;timestamp;P1;durP1;ratioP1;P2;durP2;ratioP2
7821;SDS011;3956;50.558;9.678;2023-03-08T00:00:03;4.83;;;3.63;;
7821;SDS011;3956;50.558;9.678;2023-03-08T00:02:34;5.33;;;3.80;;
7821;SDS011;3956;50.558;9.678;2023-03-08T00:05:03;5.17;;;3.83;;
7821;SDS011;3956;50.558;9.678;2023-03-08T00:07:32;7.40;;;4.07;;
7821;SDS011;3956;50.558;9.678;2023-03-08T00:10:01;5.40;;;3.90;;
7821;SDS011;3956;50.558;9.678;2023-03-08T00:12:29;5.17;;;4.00;;
7821;SDS011;3956;50.558;9.678;2023-03-08T00:14:57;6.00;;;4.10;;
7821;SDS011;3956;50.558;9.678;2023-03-08T00:17:26;5.50;;;4.50;;
7821;SDS011;3956;50.558;9.678;2023-03-08T00:19:55;5.30;;;3.97;;
7821;SDS011;3956;50.558;9.678;2023-03-08T00:22:24;7.17;;;4.23;;
7821;SDS011;3956;50.558;9.678;2023-03-08T00:24:52;6.67;;;4.17;;
7821;SDS011;3956;50.558;9.678;2023-03-08T00:27:20;5.83;;;4.23;;
7821;SDS011;3956;50.558;9.678;2023-03-08T00:29:48;5.27;;;3.83;;
7821;SDS011;3956;50.558;9.678;2023-03-08T00:32:17;6.80;;;4.47;;
7821;SDS011;3956;50.558;9.678;2023-03-08T00:34:45;7.70;;;4.67;;
7821;SDS011;3956;50.558;9.678;2023-03-08T00:37:15;6.23;;;4.63;;
7821;SDS011;3956;50.558;9.678;2023-03-08T00:39:43;8.57;;;4.80;;
7821;SDS011;3956;50.558;9.678;2023-03-08T00:42:12;5.83;;;4.20;;
7821;SDS011;3956;50.558;9.678;2023-03-08T00:44:40;6.10;;;4.93;;
7821;SDS011;3956;50.558;9.678;2023-03-08T00:47:08;6.23;;;4.53;;
7821;SDS011;3956;50.558;9.678;2023-03-08T00:49:37;7.33;;;4.93;;
7821;SDS011;3956;50.558;9.678;2023-03-08T00:52:05;7.63;;;5.10;;
7821;SDS011;3956;50.558;9.678;2023-03-08T00:54:35;7.97;;;5.60;;
7821;SDS011;3956;50.558;9.678;2023-03-08T00:57:05;6.70;;;4.93;;
7821;SDS011;3956;50.558;9.678;2023-03-08T00:59:33;6.70;;;4.40;;
7821;SDS011;3956;50.558;9.678;2023-03-08T01:02:02;7.23;;;5.17;;
7821;SDS011;3956;50.558;9.678;2023-03-08T01:04:36;6.27;;;4.50;;
7821;SDS011;3956;50.558;9.678;2023-03-08T01:07:07;9.33;;;5.73;;
7821;SDS011;3956;50.558;9.678;2023-03-08T01:09:37;6.77;;;4.77;;
7821;SDS011;3956;50.558;9.678;2023-03-08T01:12:05;8.13;;;5.57;;
7821;SDS011;3956;50.558;9.678;2023-03-08T01:14:33;8.83;;;6.10;;
7821;SDS011;3956;50.558;9.678;2023-03-08T01:17:02;8.03;;;5.87;;
7821;SDS011;3956;50.558;9.678;2023-03-08T01:19:30;7.03;;;5.03;;
7821;SDS011;3956;50.558;9.678;2023-03-08T01:21:58;7.70;;;5.33;;
7821;SDS011;3956;50.558;9.678;2023-03-08T01:24:26;8.30;;;5.43;;
7821;SDS011;3956;50.558;9.678;2023-03-08T01:26:56;8.50;;;5.87;;
7821;SDS011;3956;50.558;9.678;2023-03-08T01:29:26;8.10;;;5.30;;
7821;SDS011;3956;50.558;9.678;2023-03-08T01:31:54;9.07;;;5.83;;
7821;SDS011;3956;50.558;9.678;2023-03-08T01:34:23;7.67;;;5.43;;
7821;SDS011;3956;50.558;9.678;2023-03-08T01:36:51;9.10;;;5.97;;
7821;SDS011;3956;50.558;9.678;2023-03-08T01:39:19;7.23;;;5.20;;
7821;SDS011;3956;50.558;9.678;2023-03-08T01:41:47;8.27;;;5.83;;
7821;SDS011;3956;50.558;9.678;2023-03-08T01:44:18;8.60;;;5.43;;
7821;SDS011;3956;50.558;9.678;2023-03-08T01:46:48;8.20;;;5.77;;
7821;SDS011;3956;50.558;9.678;2023-03-08T01:49:17;9.07;;;6.03;;
7821;SDS011;3956;50.558;9.678;2023-03-08T01:51:48;9.37;;;5.97;;
7821;SDS011;3956;50.558;9.678;2023-03-08T01:54:21;9.03;;;6.20;;
7821;SDS011;3956;50.558;9.678;2023-03-08T01:56:53;9.93;;;6.90;;
7821;SDS011;3956;50.558;9.678;2023-03-08T01:59:27;9.43;;;6.93;;
7821;SDS011;3956;50.558;9.678;2023-03-08T02:01:58;10.57;;;6.43;;
7821;SDS011;3956;50.558;9.678;2023-03-08T02:04:32;9.93;;;6.33;;
7821;SDS011;3956;50.558;9.678;2023-03-08T02:07:00;9.17;;;6.27;;
7821;SDS011;3956;50.558;9.678;2023-03-08T02:09:29;9.83;;;6.90;;
7821;SDS011;3956;50.558;9.678;2023-03-08T02:11:58;11.17;;;7.20;;
7821;SDS011;3956;50.558;9.678;2023-03-08T02:14:31;9.93;;;6.60;;
7821;SDS011;3956;50.558;9.678;2023-03-08T02:17:00;10.00;;;6.27;;
7821;SDS011;3956;50.558;9.678;2023-03-08T02:19:31;8.47;;;6.00;;
7821;SDS011;3956;50.558;9.678;2023-03-08T02:22:08;10.30;;;6.47;;
7821;SDS011;3956;50.558;9.678;2023-03-08T02:24:39;8.33;;;5.77;;
7821;SDS011;3956;50.558;9.678;2023-03-08T02:27:08;8.53;;;6.27;;
7821;SDS011;3956;50.558;9.678;2023-03-08T02:29:41;9.10;;;6.23;;
7821;SDS011;3956;50.558;9.678;2023-03-08T02:32:09;9.10;;;6.07;;
7821;SDS011;3956;50.558;9.678;2023-03-08T02:34:37;9.90;;;6.63;;
7821;SDS011;3956;50.558;9.678;2023-03-08T02:37:06;10.57;;;6.40;;
7821;SDS011;3956;50.558;9.678;2023-03-08T02:39:34;9.07;;;6.30;;
7821;SDS011;3956;50.558;9.678;2023-03-08T02:42:04;10.87;;;6.77;;
7821;SDS011;3956;50.558;9.678;2023-03-08T02:44:33;11.93;;;6.30;;
7821;SDS011;3956;50.558;9.678;2023-03-08T02:47:01;9.20;;;6.33;;
7821;SDS011;3956;50.558;9.678;2023-03-08T02:49:29;9.97;;;6.53;;
7821;SDS011;3956;50.558;9.678;2023-03-08T02:51:57;11.40;;;6.40;;
7821;SDS011;3956;50.558;9.678;2023-03-08T02:54:26;8.93;;;6.00;;
7821;SDS011;3956;50.558;9.678;2023-03-08T02:56:54;9.23;;;6.67;;
7821;SDS011;3956;50.558;9.678;2023-03-08T02:59:24;10.10;;;6.37;;
7821;SDS011;3956;50.558;9.678;2023-03-08T03:01:53;9.53;;;5.93;;
7821;SDS011;3956;50.558;9.678;2023-03-08T03:04:22;9.17;;;6.47;;
7821;SDS011;3956;50.558;9.678;2023-03-08T03:06:50;10.63;;;6.47;;
7821;SDS011;3956;50.558;9.678;2023-03-08T03:09:19;8.57;;;6.17;;
7821;SDS011;3956;50.558;9.678;2023-03-08T03:11:47;9.47;;;6.67;;
7821;SDS011;3956;50.558;9.678;2023-03-08T03:14:15;8.80;;;6.30;;
7821;SDS011;3956;50.558;9.678;2023-03-08T03:16:45;10.10;;;7.20;;
7821;SDS011;3956;50.558;9.678;2023-03-08T03:19:13;10.33;;;7.50;;
7821;SDS011;3956;50.558;9.678;2023-03-08T03:21:42;11.17;;;6.67;;
7821;SDS011;3956;50.558;9.678;2023-03-08T03:24:10;10.40;;;7.67;;
7821;SDS011;3956;50.558;9.678;2023-03-08T03:26:39;15.37;;;9.00;;
7821;SDS011;3956;50.558;9.678;2023-03-08T03:29:08;9.50;;;6.20;;
7821;SDS011;3956;50.558;9.678;2023-03-08T03:31:36;21.90;;;13.93;;
7821;SDS011;3956;50.558;9.678;2023-03-08T03:34:06;10.97;;;7.53;;
7821;SDS011;3956;50.558;9.678;2023-03-08T03:36:34;10.67;;;7.57;;
7821;SDS011;3956;50.558;9.678;2023-03-08T03:39:03;10.03;;;7.33;;
7821;SDS011;3956;50.558;9.678;2023-03-08T03:41:31;10.03;;;7.33;;
7821;SDS011;3956;50.558;9.678;2023-03-08T03:43:59;9.63;;;7.33;;
7821;SDS011;3956;50.558;9.678;2023-03-08T03:46:28;10.90;;;7.07;;
7821;SDS011;3956;50.558;9.678;2023-03-08T03:48:56;9.50;;;6.97;;
7821;SDS011;3956;50.558;9.678;2023-03-08T03:51:26;12.13;;;6.90;;
7821;SDS011;3956;50.558;9.678;2023-03-08T03:53:54;11.03;;;7.13;;
7821;SDS011;3956;50.558;9.678;2023-03-08T03:56:24;9.87;;;7.27;;
7821;SDS011;3956;50.558;9.678;2023-03-08T03:58:55;9.27;;;6.93;;
7821;SDS011;3956;50.558;9.678;2023-03-08T04:01:28;8.13;;;6.13;;
7821;SDS011;3956;50.558;9.678;2023-03-08T04:03:57;9.57;;;6.83;;
7821;SDS011;3956;50.558;9.678;2023-03-08T04:06:28;9.10;;;6.80;;
7821;SDS011;3956;50.558;9.678;2023-03-08T04:08:57;12.13;;;6.80;;
7821;SDS011;3956;50.558;9.678;2023-03-08T04:11:27;11.07;;;7.33;;
7821;SDS011;3956;50.558;9.678;2023-03-08T04:13:58;10.60;;;7.30;;
7821;SDS011;3956;50.558;9.678;2023-03-08T04:16:27;12.67;;;8.40;;
7821;SDS011;3956;50.558;9.678;2023-03-08T04:18:57;10.60;;;7.17;;
7821;SDS011;3956;50.558;9.678;2023-03-08T04:21:28;11.60;;;7.37;;
7821;SDS011;3956;50.558;9.678;2023-03-08T04:23:57;9.70;;;6.27;;
7821;SDS011;3956;50.558;9.678;2023-03-08T04:26:26;11.67;;;6.03;;
7821;SDS011;3956;50.558;9.678;2023-03-08T04:28:54;8.27;;;5.80;;
7821;SDS011;3956;50.558;9.678;2023-03-08T04:31:23;10.60;;;6.13;;
7821;SDS011;3956;50.558;9.678;2023-03-08T04:33:54;7.83;;;5.77;;
7821;SDS011;3956;50.558;9.678;2023-03-08T04:36:24;8.67;;;6.30;;
7821;SDS011;3956;50.558;9.678;2023-03-08T04:38:54;8.87;;;6.60;;
7821;SDS011;3956;50.558;9.678;2023-03-08T04:41:23;10.77;;;6.10;;
7821;SDS011;3956;50.558;9.678;2023-03-08T04:43:53;9.47;;;6.23;;
7821;SDS011;3956;50.558;9.678;2023-03-08T04:46:24;11.07;;;6.77;;
7821;SDS011;3956;50.558;9.678;2023-03-08T04:48:54;10.10;;;6.43;;
7821;SDS011;3956;50.558;9.678;2023-03-08T04:51:24;11.73;;;6.93;;
7821;SDS011;3956;50.558;9.678;2023-03-08T04:53:55;9.67;;;6.53;;
7821;SDS011;3956;50.558;9.678;2023-03-08T04:56:25;12.00;;;6.67;;
7821;SDS011;3956;50.558;9.678;2023-03-08T04:58:54;13.80;;;7.77;;
7821;SDS011;3956;50.558;9.678;2023-03-08T05:01:22;11.70;;;7.07;;
7821;SDS011;3956;50.558;9.678;2023-03-08T05:03:51;11.00;;;7.43;;
7821;SDS011;3956;50.558;9.678;2023-03-08T05:06:20;10.27;;;7.23;;
7821;SDS011;3956;50.558;9.678;2023-03-08T05:08:50;12.00;;;7.20;;
7821;SDS011;3956;50.558;9.678;2023-03-08T05:11:21;13.70;;;8.40;;
7821;SDS011;3956;50.558;9.678;2023-03-08T05:13:52;14.23;;;8.77;;
7821;SDS011;3956;50.558;9.678;2023-03-08T05:16:24;12.00;;;7.97;;
7821;SDS011;3956;50.558;9.678;2023-03-08T05:18:54;13.40;;;8.40;;
7821;SDS011;3956;50.558;9.678;2023-03-08T05:21:25;16.03;;;8.57;;
7821;SDS011;3956;50.558;9.678;2023-03-08T05:23:58;12.87;;;8.57;;
7821;SDS011;3956;50.558;9.678;2023-03-08T05:26:52;13.30;;;7.77;;
7821;SDS011;3956;50.558;9.678;2023-03-08T05:29:25;11.37;;;7.53;;
7821;SDS011;3956;50.558;9.678;2023-03-08T05:32:10;12.47;;;8.37;;
7821;SDS011;3956;50.558;9.678;2023-03-08T05:34:49;11.90;;;7.90;;
7821;SDS011;3956;50.558;9.678;2023-03-08T05:37:54;17.13;;;8.07;;
7821;SDS011;3956;50.558;9.678;2023-03-08T05:40:22;14.53;;;7.80;;
7821;SDS011;3956;50.558;9.678;2023-03-08T05:42:52;14.50;;;8.80;;
7821;SDS011;3956;50.558;9.678;2023-03-08T05:45:24;13.03;;;7.73;;
7821;SDS011;3956;50.558;9.678;2023-03-08T05:48:49;12.83;;;8.53;;
7821;SDS011;3956;50.558;9.678;2023-03-08T05:52:03;13.70;;;7.47;;
7821;SDS011;3956;50.558;9.678;2023-03-08T05:55:05;12.77;;;8.10;;
7821;SDS011;3956;50.558;9.678;2023-03-08T05:57:38;13.53;;;7.83;;
7821;SDS011;3956;50.558;9.678;2023-03-08T06:00:08;14.87;;;7.97;;
7821;SDS011;3956;50.558;9.678;2023-03-08T06:02:38;13.13;;;7.90;;
7821;SDS011;3956;50.558;9.678;2023-03-08T06:05:07;13.17;;;7.97;;
7821;SDS011;3956;50.558;9.678;2023-03-08T06:07:38;12.80;;;7.80;;
7821;SDS011;3956;50.558;9.678;2023-03-08T06:10:38;13.47;;;7.20;;
7821;SDS011;3956;50.558;9.678;2023-03-08T06:13:36;10.80;;;7.40;;
7821;SDS011;3956;50.558;9.678;2023-03-08T06:16:07;11.70;;;6.83;;
7821;SDS011;3956;50.558;9.678;2023-03-08T06:18:45;13.43;;;7.73;;
7821;SDS011;3956;50.558;9.678;2023-03-08T06:22:01;12.77;;;7.40;;
7821;SDS011;3956;50.558;9.678;2023-03-08T06:24:32;19.33;;;8.47;;
7821;SDS011;3956;50.558;9.678;2023-03-08T06:27:51;13.10;;;7.67;;
7821;SDS011;3956;50.558;9.678;2023-03-08T06:30:30;21.77;;;9.67;;
7821;SDS011;3956;50.558;9.678;2023-03-08T06:33:15;15.43;;;8.77;;
7821;SDS011;3956;50.558;9.678;2023-03-08T06:35:53;16.17;;;9.93;;
7821;SDS011;3956;50.558;9.678;2023-03-08T06:38:31;28.33;;;11.03;;
7821;SDS011;3956;50.558;9.678;2023-03-08T06:41:25;19.83;;;11.43;;
7821;SDS011;3956;50.558;9.678;2023-03-08T06:44:08;24.97;;;12.27;;
7821;SDS011;3956;50.558;9.678;2023-03-08T06:46:52;20.87;;;12.07;;
7821;SDS011;3956;50.558;9.678;2023-03-08T06:49:27;26.53;;;13.23;;
7821;SDS011;3956;50.558;9.678;2023-03-08T06:51:56;21.50;;;12.30;;
7821;SDS011;3956;50.558;9.678;2023-03-08T06:54:24;26.27;;;11.57;;
7821;SDS011;3956;50.558;9.678;2023-03-08T06:56:52;19.60;;;11.93;;
7821;SDS011;3956;50.558;9.678;2023-03-08T06:59:21;21.37;;;12.50;;
7821;SDS011;3956;50.558;9.678;2023-03-08T07:01:52;20.87;;;12.33;;
7821;SDS011;3956;50.558;9.678;2023-03-08T07:04:20;19.37;;;12.27;;
7821;SDS011;3956;50.558;9.678;2023-03-08T07:06:50;21.13;;;12.90;;
7821;SDS011;3956;50.558;9.678;2023-03-08T07:09:18;19.73;;;12.20;;
7821;SDS011;3956;50.558;9.678;2023-03-08T07:11:46;27.00;;;13.47;;
7821;SDS011;3956;50.558;9.678;2023-03-08T07:14:16;25.53;;;12.63;;
7821;SDS011;3956;50.558;9.678;2023-03-08T07:16:56;23.57;;;13.63;;
7821;SDS011;3956;50.558;9.678;2023-03-08T07:19:27;20.40;;;11.80;;
7821;SDS011;3956;50.558;9.678;2023-03-08T07:21:58;24.80;;;13.67;;
7821;SDS011;3956;50.558;9.678;2023-03-08T07:24:30;25.10;;;13.50;;
7821;SDS011;3956;50.558;9.678;2023-03-08T07:28:09;20.07;;;12.47;;
7821;SDS011;3956;50.558;9.678;2023-03-08T07:31:20;25.10;;;12.93;;
7821;SDS011;3956;50.558;9.678;2023-03-08T07:33:49;21.80;;;13.63;;
7821;SDS011;3956;50.558;9.678;2023-03-08T07:36:17;25.60;;;13.97;;
7821;SDS011;3956;50.558;9.678;2023-03-08T07:38:47;22.97;;;13.47;;
7821;SDS011;3956;50.558;9.678;2023-03-08T07:41:15;27.67;;;16.23;;
7821;SDS011;3956;50.558;9.678;2023-03-08T07:43:44;24.97;;;13.27;;
7821;SDS011;3956;50.558;9.678;2023-03-08T07:46:14;29.20;;;14.27;;
7821;SDS011;3956;50.558;9.678;2023-03-08T07:48:42;21.93;;;13.13;;
7821;SDS011;3956;50.558;9.678;2023-03-08T07:51:12;22.97;;;13.77;;
7821;SDS011;3956;50.558;9.678;2023-03-08T07:53:53;23.70;;;14.23;;
7821;SDS011;3956;50.558;9.678;2023-03-08T07:56:22;26.03;;;14.53;;
7821;SDS011;3956;50.558;9.678;2023-03-08T07:59:08;24.93;;;14.80;;
7821;SDS011;3956;50.558;9.678;2023-03-08T08:01:42;37.57;;;21.97;;
7821;SDS011;3956;50.558;9.678;2023-03-08T08:04:14;25.13;;;13.63;;
7821;SDS011;3956;50.558;9.678;2023-03-08T08:06:55;25.83;;;14.33;;
7821;SDS011;3956;50.558;9.678;2023-03-08T08:09:26;24.57;;;14.13;;
7821;SDS011;3956;50.558;9.678;2023-03-08T08:11:55;24.73;;;15.23;;
7821;SDS011;3956;50.558;9.678;2023-03-08T08:14:43;27.20;;;14.20;;
7821;SDS011;3956;50.558;9.678;2023-03-08T08:17:14;31.77;;;15.77;;
7821;SDS011;3956;50.558;9.678;2023-03-08T08:19:54;24.20;;;14.77;;
7821;SDS011;3956;50.558;9.678;2023-03-08T08:22:40;27.13;;;13.63;;
7821;SDS011;3956;50.558;9.678;2023-03-08T08:25:13;25.10;;;13.90;;
7821;SDS011;3956;50.558;9.678;2023-03-08T08:27:49;21.07;;;12.63;;
7821;SDS011;3956;50.558;9.678;2023-03-08T08:30:21;22.47;;;13.87;;
7821;SDS011;3956;50.558;9.678;2023-03-08T08:32:52;27.33;;;15.70;;
7821;SDS011;3956;50.558;9.678;2023-03-08T08:35:50;28.13;;;15.13;;
7821;SDS011;3956;50.558;9.678;2023-03-08T08:38:20;35.60;;;18.37;;
7821;SDS011;3956;50.558;9.678;2023-03-08T08:44:20;21.50;;;12.27;;
7821;SDS011;3956;50.558;9.678;2023-03-08T08:46:49;19.10;;;11.50;;
7821;SDS011;3956;50.558;9.678;2023-03-08T08:49:21;20.87;;;12.97;;
7821;SDS011;3956;50.558;9.678;2023-03-08T08:51:50;18.43;;;11.87;;
7821;SDS011;3956;50.558;9.678;2023-03-08T08:54:18;19.43;;;11.23;;
7821;SDS011;3956;50.558;9.678;2023-03-08T08:56:47;18.33;;;11.93;;
7821;SDS011;3956;50.558;9.678;2023-03-08T08:59:15;18.73;;;11.37;;
7821;SDS011;3956;50.558;9.678;2023-03-08T09:01:45;19.73;;;12.17;;
7821;SDS011;3956;50.558;9.678;2023-03-08T09:04:14;16.03;;;11.07;;
7821;SDS011;3956;50.558;9.678;2023-03-08T09:06:43;20.00;;;10.83;;
7821;SDS011;3956;50.558;9.678;2023-03-08T09:09:12;22.60;;;12.50;;
7821;SDS011;3956;50.558;9.678;2023-03-08T09:11:46;20.63;;;13.77;;
7821;SDS011;3956;50.558;9.678;2023-03-08T09:14:22;14.10;;;10.27;;
7821;SDS011;3956;50.558;9.678;2023-03-08T09:16:53;14.37;;;9.87;;
7821;SDS011;3956;50.558;9.678;2023-03-08T09:19:28;14.33;;;9.80;;
7821;SDS011;3956;50.558;9.678;2023-03-08T09:22:19;16.07;;;10.07;;
7821;SDS011;3956;50.558;9.678;2023-03-08T09:24:53;15.97;;;10.03;;
7821;SDS011;3956;50.558;9.678;2023-03-08T09:27:23;13.47;;;8.60;;
7821;SDS011;3956;50.558;9.678;2023-03-08T09:29:52;13.27;;;9.00;;
7821;SDS011;3956;50.558;9.678;2023-03-08T09:32:31;13.33;;;9.20;;
7821;SDS011;3956;50.558;9.678;2023-03-08T09:35:19;14.87;;;9.50;;
7821;SDS011;3956;50.558;9.678;2023-03-08T09:38:24;66.53;;;11.77;;
7821;SDS011;3956;50.558;9.678;2023-03-08T09:44:37;12.27;;;8.43;;
7821;SDS011;3956;50.558;9.678;2023-03-08T09:47:08;14.17;;;9.00;;
7821;SDS011;3956;50.558;9.678;2023-03-08T09:49:48;15.03;;;8.70;;
7821;SDS011;3956;50.558;9.678;2023-03-08T09:52:21;13.93;;;8.27;;
7821;SDS011;3956;50.558;9.678;2023-03-08T09:54:58;15.03;;;9.80;;
7821;SDS011;3956;50.558;9.678;2023-03-08T09:57:33;12.37;;;7.73;;
7821;SDS011;3956;50.558;9.678;2023-03-08T10:00:09;12.07;;;8.33;;
7821;SDS011;3956;50.558;9.678;2023-03-08T10:02:51;13.77;;;8.50;;
7821;SDS011;3956;50.558;9.678;2023-03-08T10:05:33;12.13;;;8.17;;
7821;SDS011;3956;50.558;9.678;2023-03-08T10:08:10;13.50;;;8.20;;
7821;SDS011;3956;50.558;9.678;2023-03-08T10:10:49;14.17;;;8.60;;
7821;SDS011;3956;50.558;9.678;2023-03-08T10:13:31;17.30;;;9.83;;
7821;SDS011;3956;50.558;9.678;2023-03-08T10:16:05;13.63;;;7.80;;
7821;SDS011;3956;50.558;9.678;2023-03-08T10:18:54;13.23;;;7.53;;
7821;SDS011;3956;50.558;9.678;2023-03-08T10:21:30;11.50;;;7.90;;
7821;SDS011;3956;50.558;9.678;2023-03-08T10:24:10;11.63;;;7.20;;
7821;SDS011;3956;50.558;9.678;2023-03-08T10:26:42;14.20;;;8.13;;
7821;SDS011;3956;50.558;9.678;2023-03-08T10:29:11;12.30;;;8.47;;
7821;SDS011;3956;50.558;9.678;2023-03-08T10:31:41;15.40;;;8.17;;
7821;SDS011;3956;50.558;9.678;2023-03-08T10:34:16;11.80;;;7.50;;
7821;SDS011;3956;50.558;9.678;2023-03-08T10:36:49;18.90;;;9.73;;
7821;SDS011;3956;50.558;9.678;2023-03-08T10:39:21;13.87;;;9.30;;
7821;SDS011;3956;50.558;9.678;2023-03-08T10:41:51;14.90;;;9.07;;
7821;SDS011;3956;50.558;9.678;2023-03-08T10:44:33;16.23;;;10.23;;
7821;SDS011;3956;50.558;9.678;2023-03-08T10:47:16;13.17;;;8.93;;
7821;SDS011;3956;50.558;9.678;2023-03-08T10:49:48;13.60;;;9.37;;
7821;SDS011;3956;50.558;9.678;2023-03-08T10:52:35;12.43;;;8.60;;
7821;SDS011;3956;50.558;9.678;2023-03-08T10:55:06;18.27;;;9.20;;
7821;SDS011;3956;50.558;9.678;2023-03-08T10:57:38;17.37;;;10.27;;
7821;SDS011;3956;50.558;9.678;2023-03-08T11:00:21;17.70;;;10.33;;
7821;SDS011;3956;50.558;9.678;2023-03-08T11:03:06;13.43;;;9.20;;
7821;SDS011;3956;50.558;9.678;2023-03-08T11:05:54;14.17;;;8.30;;
7821;SDS011;3956;50.558;9.678;2023-03-08T11:20:30;13.77;;;7.43;;
7821;SDS011;3956;50.558;9.678;2023-03-08T11:23:34;12.17;;;7.40;;
7821;SDS011;3956;50.558;9.678;2023-03-08T11:26:12;12.70;;;8.07;;
7821;SDS011;3956;50.558;9.678;2023-03-08T11:28:54;14.10;;;8.57;;
7821;SDS011;3956;50.558;9.678;2023-03-08T11:31:41;11.70;;;7.60;;
7821;SDS011;3956;50.558;9.678;2023-03-08T11:34:35;11.13;;;7.67;;
7821;SDS011;3956;50.558;9.678;2023-03-08T11:38:11;14.27;;;7.23;;
7821;SDS011;3956;50.558;9.678;2023-03-08T11:41:17;11.07;;;7.10;;
7821;SDS011;3956;50.558;9.678;2023-03-08T11:44:04;10.23;;;6.30;;
7821;SDS011;3956;50.558;9.678;2023-03-08T11:47:09;13.33;;;6.87;;
7821;SDS011;3956;50.558;9.678;2023-03-08T11:50:07;11.37;;;7.17;;
7821;SDS011;3956;50.558;9.678;2023-03-08T11:53:00;10.53;;;6.43;;
7821;SDS011;3956;50.558;9.678;2023-03-08T11:59:36;7.63;;;5.07;;
7821;SDS011;3956;50.558;9.678;2023-03-08T12:02:28;8.50;;;5.30;;
7821;SDS011;3956;50.558;9.678;2023-03-08T12:05:04;9.53;;;6.07;;
7821;SDS011;3956;50.558;9.678;2023-03-08T12:07:43;8.77;;;5.63;;
7821;SDS011;3956;50.558;9.678;2023-03-08T12:10:22;8.00;;;5.63;;
7821;SDS011;3956;50.558;9.678;2023-03-08T12:13:04;8.60;;;5.77;;
7821;SDS011;3956;50.558;9.678;2023-03-08T12:15:45;8.43;;;5.53;;
7821;SDS011;3956;50.558;9.678;2023-03-08T12:18:21;7.40;;;5.07;;
7821;SDS011;3956;50.558;9.678;2023-03-08T12:20:58;7.93;;;5.33;;
7821;SDS011;3956;50.558;9.678;2023-03-08T12:23:38;7.33;;;5.70;;
7821;SDS011;3956;50.558;9.678;2023-03-08T12:26:20;6.60;;;5.43;;
7821;SDS011;3956;50.558;9.678;2023-03-08T12:29:01;6.80;;;4.97;;
7821;SDS011;3956;50.558;9.678;2023-03-08T12:35:05;7.97;;;5.93;;
7821;SDS011;3956;50.558;9.678;2023-03-08T12:38:30;8.33;;;5.67;;
7821;SDS011;3956;50.558;9.678;2023-03-08T12:41:29;8.40;;;5.60;;
7821;SDS011;3956;50.558;9.678;2023-03-08T12:44:22;8.20;;;5.73;;
7821;SDS011;3956;50.558;9.678;2023-03-08T12:46:59;9.47;;;6.20;;
7821;SDS011;3956;50.558;9.678;2023-03-08T12:50:15;9.07;;;5.93;;
7821;SDS011;3956;50.558;9.678;2023-03-08T12:52:46;10.20;;;6.00;;
7821;SDS011;3956;50.558;9.678;2023-03-08T12:55:46;7.37;;;4.53;;
7821;SDS011;3956;50.558;9.678;2023-03-08T12:58:35;7.07;;;4.87;;
7821;SDS011;3956;50.558;9.678;2023-03-08T13:01:36;8.47;;;5.03;;
7821;SDS011;3956;50.558;9.678;2023-03-08T13:04:34;5.47;;;4.43;;
7821;SDS011;3956;50.558;9.678;2023-03-08T13:07:16;6.53;;;4.00;;
7821;SDS011;3956;50.558;9.678;2023-03-08T13:10:00;3.80;;;3.10;;
7821;SDS011;3956;50.558;9.678;2023-03-08T13:12:36;6.20;;;3.90;;
7821;SDS011;3956;50.558;9.678;2023-03-08T13:15:19;7.17;;;4.13;;
7821;SDS011;3956;50.558;9.678;2023-03-08T13:18:00;3.87;;;3.47;;
7821;SDS011;3956;50.558;9.678;2023-03-08T13:20:46;5.93;;;4.30;;
7821;SDS011;3956;50.558;9.678;2023-03-08T13:23:40;4.37;;;3.27;;
7821;SDS011;3956;50.558;9.678;2023-03-08T13:26:49;7.87;;;3.13;;
7821;SDS011;3956;50.558;9.678;2023-03-08T13:29:40;4.10;;;3.27;;
7821;SDS011;3956;50.558;9.678;2023-03-08T13:33:05;5.37;;;3.40;;
7821;SDS011;3956;50.558;9.678;2023-03-08T13:35:40;6.23;;;2.77;;
7821;SDS011;3956;50.558;9.678;2023-03-08T13:38:17;4.00;;;2.90;;
7821;SDS011;3956;50.558;9.678;2023-03-08T13:41:07;4.03;;;2.77;;
7821;SDS011;3956;50.558;9.678;2023-03-08T13:43:35;3.63;;;2.87;;
7821;SDS011;3956;50.558;9.678;2023-03-08T13:46:05;4.30;;;2.90;;
7821;SDS011;3956;50.558;9.678;2023-03-08T13:48:42;3.33;;;2.70;;
7821;SDS011;3956;50.558;9.678;2023-03-08T13:51:42;3.03;;;2.37;;
7821;SDS011;3956;50.558;9.678;2023-03-08T13:54:55;4.60;;;3.07;;
7821;SDS011;3956;50.558;9.678;2023-03-08T13:57:27;4.57;;;2.40;;
7821;SDS011;3956;50.558;9.678;2023-03-08T14:00:00;5.40;;;2.60;;
7821;SDS011;3956;50.558;9.678;2023-03-08T14:02:46;3.73;;;2.57;;
7821;SDS011;3956;50.558;9.678;2023-03-08T14:05:16;4.00;;;2.87;;
7821;SDS011;3956;50.558;9.678;2023-03-08T14:07:58;4.27;;;2.70;;
7821;SDS011;3956;50.558;9.678;2023-03-08T14:10:29;4.13;;;3.17;;
7821;SDS011;3956;50.558;9.678;2023-03-08T14:13:05;3.37;;;2.87;;
7821;SDS011;3956;50.558;9.678;2023-03-08T14:15:46;2.97;;;2.53;;
7821;SDS011;3956;50.558;9.678;2023-03-08T14:18:18;3.63;;;2.70;;
7821;SDS011;3956;50.558;9.678;2023-03-08T14:23:39;4.17;;;2.80;;
7821;SDS011;3956;50.558;9.678;2023-03-08T14:26:26;6.27;;;2.87;;
7821;SDS011;3956;50.558;9.678;2023-03-08T14:29:08;3.83;;;2.67;;
7821;SDS011;3956;50.558;9.678;2023-03-08T14:31:52;5.53;;;2.60;;
7821;SDS011;3956;50.558;9.678;2023-03-08T14:34:30;3.63;;;2.40;;
7821;SDS011;3956;50.558;9.678;2023-03-08T14:37:03;5.60;;;2.83;;
7821;SDS011;3956;50.558;9.678;2023-03-08T14:39:34;5.40;;;2.43;;
7821;SDS011;3956;50.558;9.678;2023-03-08T14:42:07;8.50;;;2.93;;
7821;SDS011;3956;50.558;9.678;2023-03-08T14:44:39;16.60;;;9.57;;
7821;SDS011;3956;50.558;9.678;2023-03-08T14:47:08;3.70;;;2.87;;
7821;SDS011;3956;50.558;9.678;2023-03-08T14:49:53;5.57;;;2.53;;
7821;SDS011;3956;50.558;9.678;2023-03-08T14:52:22;6.73;;;2.80;;
7821;SDS011;3956;50.558;9.678;2023-03-08T14:54:54;7.60;;;2.80;;
7821;SDS011;3956;50.558;9.678;2023-03-08T14:57:23;3.60;;;2.70;;
7821;SDS011;3956;50.558;9.678;2023-03-08T14:59:56;5.00;;;3.20;;
7821;SDS011;3956;50.558;9.678;2023-03-08T15:02:41;14.00;;;7.50;;
7821;SDS011;3956;50.558;9.678;2023-03-08T15:05:13;5.30;;;2.70;;
7821;SDS011;3956;50.558;9.678;2023-03-08T15:08:16;9.00;;;3.60;;
7821;SDS011;3956;50.558;9.678;2023-03-08T15:11:20;5.63;;;2.80;;
7821;SDS011;3956;50.558;9.678;2023-03-08T15:13:53;6.90;;;3.00;;
7821;SDS011;3956;50.558;9.678;2023-03-08T15:16:23;3.03;;;2.40;;
7821;SDS011;3956;50.558;9.678;2023-03-08T15:18:52;4.50;;;2.73;;
7821;SDS011;3956;50.558;9.678;2023-03-08T15:21:22;15.07;;;6.77;;
7821;SDS011;3956;50.558;9.678;2023-03-08T15:23:53;5.77;;;2.93;;
7821;SDS011;3956;50.558;9.678;2023-03-08T15:27:13;5.27;;;2.93;;
7821;SDS011;3956;50.558;9.678;2023-03-08T15:30:28;4.90;;;2.73;;
7821;SDS011;3956;50.558;9.678;2023-03-08T15:32:59;5.13;;;2.67;;
7821;SDS011;3956;50.558;9.678;2023-03-08T15:35:28;5.50;;;2.40;;
7821;SDS011;3956;50.558;9.678;2023-03-08T15:37:56;5.27;;;3.10;;
7821;SDS011;3956;50.558;9.678;2023-03-08T15:40:31;6.13;;;3.40;;
7821;SDS011;3956;50.558;9.678;2023-03-08T15:43:04;2.73;;;2.07;;
7821;SDS011;3956;50.558;9.678;2023-03-08T15:46:16;3.93;;;2.57;;
7821;SDS011;3956;50.558;9.678;2023-03-08T15:49:56;3.30;;;2.40;;
7821;SDS011;3956;50.558;9.678;2023-03-08T15:52:23;4.70;;;2.60;;
7821;SDS011;3956;50.558;9.678;2023-03-08T15:54:56;4.00;;;2.40;;
7821;SDS011;3956;50.558;9.678;2023-03-08T15:57:25;2.60;;;2.17;;
7821;SDS011;3956;50.558;9.678;2023-03-08T15:59:54;4.07;;;2.50;;
7821;SDS011;3956;50.558;9.678;2023-03-08T16:02:23;3.80;;;2.67;;
7821;SDS011;3956;50.558;9.678;2023-03-08T16:04:56;2.57;;;2.37;;
7821;SDS011;3956;50.558;9.678;2023-03-08T16:08:26;7.33;;;2.97;;
7821;SDS011;3956;50.558;9.678;2023-03-08T16:10:56;4.47;;;3.13;;
7821;SDS011;3956;50.558;9.678;2023-03-08T16:13:29;6.23;;;2.97;;
7821;SDS011;3956;50.558;9.678;2023-03-08T16:15:58;6.20;;;3.17;;
7821;SDS011;3956;50.558;9.678;2023-03-08T16:18:27;5.30;;;3.57;;
7821;SDS011;3956;50.558;9.678;2023-03-08T16:20:57;7.00;;;3.73;;
7821;SDS011;3956;50.558;9.678;2023-03-08T16:23:27;9.13;;;4.37;;
7821;SDS011;3956;50.558;9.678;2023-03-08T16:25:57;6.20;;;4.17;;
7821;SDS011;3956;50.558;9.678;2023-03-08T16:28:41;5.17;;;3.53;;
7821;SDS011;3956;50.558;9.678;2023-03-08T16:31:10;6.93;;;4.70;;